Hobbema, Canada
Current Conditions -  °F | °C
As of 4:00 PM on Tuesday 21 Oct 2014 (Local Time) from CYEG Reporting Station
Broken Clouds Broken Clouds  
Wind Chill: 57°   Ceiling: 22000
Heat Index: 57°   Visibility: 15mi
Dew Point: 39°   Wind: 3mph
Humidity: 51%   Direction: 270°W
Pressure: 29.64"   Gusts: NA
Location:  52.83°N, 113.45°W
Report Text: CYEG 212200Z 27003KT 230V340 15SM FEW075 FEW150 BKN220 BKN270 14/04 A2964 RMK AC1AC1CI5CI2 AC TR AC TR SLP051 DENSITY ALT 3100FT
Loading
Personal Weather Stations






























Interactive Weather Map
Tropical Storm Tracking
New forecast layout! Learn more

10-Day Weather Forecast

Advertisements
Track Severe Weather on mobile